createdAt,value
2019-01-22T00:01:10.921Z,7.27
2019-01-22T00:03:40.075Z,7.13
2019-01-22T00:06:09.133Z,7.10
2019-01-22T00:08:38.278Z,7.17
2019-01-22T00:11:07.361Z,7.40
2019-01-22T00:13:36.374Z,7.10
2019-01-22T00:16:05.420Z,8.07
2019-01-22T00:18:34.493Z,7.73
2019-01-22T00:21:03.641Z,7.93
2019-01-22T00:23:32.770Z,7.47
2019-01-22T00:26:01.826Z,8.07
2019-01-22T00:28:30.828Z,7.53
2019-01-22T00:30:59.839Z,7.63
2019-01-22T00:33:28.887Z,8.07
2019-01-22T00:35:57.900Z,7.23
2019-01-22T00:38:26.914Z,7.47
2019-01-22T00:40:55.960Z,8.00
2019-01-22T00:43:25.023Z,7.87
2019-01-22T00:45:54.047Z,7.67
2019-01-22T00:48:23.357Z,8.27
2019-01-22T00:50:52.397Z,7.80
2019-01-22T00:53:21.476Z,8.20
2019-01-22T00:55:50.482Z,7.90
2019-01-22T00:58:19.500Z,7.63
2019-01-22T01:00:48.556Z,8.53
2019-01-22T01:03:17.529Z,7.77
2019-01-22T01:05:46.534Z,6.97
2019-01-22T01:08:15.498Z,7.93
2019-01-22T01:10:44.404Z,7.70
2019-01-22T01:13:13.350Z,7.73
2019-01-22T01:15:42.423Z,8.30
2019-01-22T01:18:11.365Z,8.43
2019-01-22T01:20:40.398Z,7.97
2019-01-22T01:23:09.259Z,8.13
2019-01-22T01:25:38.219Z,8.30
2019-01-22T01:28:07.039Z,8.23
2019-01-22T01:30:36.260Z,8.60
2019-01-22T01:33:05.373Z,8.73
2019-01-22T01:35:34.420Z,8.63
2019-01-22T01:38:03.474Z,8.87
2019-01-22T01:40:32.531Z,8.50
2019-01-22T01:43:01.596Z,8.43
2019-01-22T01:45:30.626Z,9.27
2019-01-22T01:47:59.687Z,8.37
2019-01-22T01:50:28.671Z,9.17
2019-01-22T01:52:57.710Z,8.67
2019-01-22T01:55:26.788Z,9.20
2019-01-22T01:57:55.886Z,8.90
2019-01-22T02:00:24.918Z,8.60
2019-01-22T02:02:53.979Z,9.03
2019-01-22T02:05:23.115Z,8.70
2019-01-22T02:07:52.184Z,9.00
2019-01-22T02:10:23.350Z,8.20
2019-01-22T02:13:04.847Z,8.43
2019-01-22T02:15:59.321Z,9.63
2019-01-22T02:19:07.675Z,9.10
2019-01-22T02:22:33.291Z,8.87
2019-01-22T02:25:43.720Z,9.20
2019-01-22T02:28:52.423Z,9.03
2019-01-22T02:31:49.011Z,9.40
2019-01-22T02:35:11.348Z,9.13
2019-01-22T02:38:16.382Z,8.83
2019-01-22T02:41:07.123Z,9.50
2019-01-22T02:44:29.147Z,8.47
2019-01-22T02:47:30.148Z,8.53
2019-01-22T02:50:47.300Z,8.90
2019-01-22T02:53:40.799Z,9.13
2019-01-22T02:56:43.072Z,9.50
2019-01-22T02:59:43.911Z,8.97
2019-01-22T03:02:47.628Z,9.80
2019-01-22T03:06:03.758Z,8.57
2019-01-22T03:09:04.055Z,9.37
2019-01-22T03:12:04.206Z,9.53
2019-01-22T03:15:11.691Z,9.23
2019-01-22T03:18:23.389Z,9.07
2019-01-22T03:21:48.853Z,9.30
2019-01-22T03:24:57.656Z,8.93
2019-01-22T03:28:03.572Z,9.57
2019-01-22T03:31:05.025Z,8.90
2019-01-22T03:34:14.027Z,9.30
2019-01-22T03:37:01.033Z,9.37
2019-01-22T03:39:47.734Z,8.67
2019-01-22T03:42:32.242Z,9.43
2019-01-22T03:45:37.314Z,9.80
2019-01-22T03:48:58.383Z,9.57
2019-01-22T03:51:36.257Z,10.17
2019-01-22T03:54:27.985Z,9.33
2019-01-22T03:57:41.661Z,9.17
2019-01-22T04:00:54.580Z,9.27
2019-01-22T04:03:23.646Z,10.57
2019-01-22T04:05:54.315Z,9.77
2019-01-22T04:08:23.362Z,9.07
2019-01-22T04:11:00.456Z,9.27
2019-01-22T04:13:29.503Z,9.97
2019-01-22T04:15:58.538Z,9.30
2019-01-22T04:18:28.792Z,9.33
2019-01-22T04:20:58.886Z,9.03
2019-01-22T04:23:40.095Z,9.43
2019-01-22T04:26:40.639Z,9.53
2019-01-22T04:29:46.648Z,9.47
2019-01-22T04:33:09.069Z,9.30
2019-01-22T04:36:15.084Z,8.67
2019-01-22T04:39:06.894Z,9.97
2019-01-22T04:41:54.932Z,10.47
2019-01-22T04:44:51.756Z,9.60
2019-01-22T04:47:33.454Z,9.07
2019-01-22T04:50:52.709Z,9.53
2019-01-22T04:54:00.185Z,9.40
2019-01-22T04:57:07.963Z,9.33
2019-01-22T05:00:26.269Z,9.77
2019-01-22T05:03:23.279Z,9.13
2019-01-22T05:06:17.293Z,9.03
2019-01-22T05:09:33.949Z,8.87
2019-01-22T05:12:26.854Z,9.10
2019-01-22T05:15:31.530Z,9.00
2019-01-22T05:18:43.053Z,8.93
2019-01-22T05:21:46.968Z,8.80
2019-01-22T05:24:32.725Z,8.40
2019-01-22T05:27:18.642Z,8.63
2019-01-22T05:30:18.284Z,9.30
2019-01-22T05:33:09.857Z,9.57
2019-01-22T05:36:31.350Z,9.23
2019-01-22T05:39:25.489Z,9.03
2019-01-22T05:42:20.520Z,9.10
2019-01-22T05:45:05.339Z,9.30
2019-01-22T05:48:13.390Z,8.73
2019-01-22T05:51:02.197Z,9.50
2019-01-22T05:54:25.311Z,8.50
2019-01-22T05:57:19.809Z,9.27
2019-01-22T06:00:16.681Z,9.03
2019-01-22T06:03:19.786Z,8.53
2019-01-22T06:06:22.761Z,8.23
2019-01-22T06:09:36.675Z,9.07
2019-01-22T06:12:33.374Z,8.47
2019-01-22T06:15:20.271Z,8.73
2019-01-22T06:18:30.718Z,8.60
2019-01-22T06:21:27.678Z,8.43
2019-01-22T06:24:36.770Z,8.23
2019-01-22T06:27:37.409Z,8.43
2019-01-22T06:31:09.227Z,8.83
2019-01-22T06:34:18.411Z,9.67
2019-01-22T06:37:25.958Z,8.53
2019-01-22T06:40:05.112Z,8.30
2019-01-22T06:43:14.245Z,8.57
2019-01-22T06:46:16.630Z,8.87
2019-01-22T06:49:03.219Z,8.97
2019-01-22T06:52:13.355Z,8.43
2019-01-22T06:55:26.120Z,7.87
2019-01-22T06:58:50.167Z,8.20
2019-01-22T07:01:52.513Z,8.10
2019-01-22T07:04:57.451Z,8.33
2019-01-22T07:08:25.793Z,7.83
2019-01-22T07:11:18.535Z,7.80
2019-01-22T07:14:17.253Z,8.27
2019-01-22T07:17:21.537Z,8.93
2019-01-22T07:20:23.349Z,8.90
2019-01-22T07:23:20.328Z,9.30
2019-01-22T07:26:25.386Z,8.27
2019-01-22T07:29:40.383Z,8.93
2019-01-22T07:32:50.862Z,8.70
2019-01-22T07:35:29.944Z,8.70
2019-01-22T07:38:43.378Z,8.30
2019-01-22T07:41:50.818Z,7.40
2019-01-22T07:45:06.856Z,7.47
2019-01-22T07:47:56.615Z,7.70
2019-01-22T07:51:04.042Z,7.27
2019-01-22T07:54:04.621Z,7.03
2019-01-22T07:57:14.617Z,7.00
2019-01-22T08:00:10.177Z,7.43
2019-01-22T08:03:53.429Z,6.30
2019-01-22T08:06:43.489Z,6.30
2019-01-22T08:09:50.928Z,6.40
2019-01-22T08:12:40.698Z,5.97
2019-01-22T08:16:03.512Z,6.87
2019-01-22T08:18:56.438Z,6.03
2019-01-22T08:22:24.598Z,6.43
2019-01-22T08:25:35.497Z,6.10
2019-01-22T08:28:26.429Z,5.77
2019-01-22T08:31:42.470Z,6.90
2019-01-22T08:34:37.493Z,5.80
2019-01-22T08:38:10.415Z,6.53
2019-01-22T08:41:15.013Z,6.60
2019-01-22T08:44:20.632Z,6.73
2019-01-22T08:47:21.304Z,7.30
2019-01-22T08:50:07.446Z,8.07
2019-01-22T08:53:26.834Z,7.97
2019-01-22T08:56:33.914Z,7.13
2019-01-22T08:59:23.638Z,7.83
2019-01-22T09:02:13.840Z,8.43
2019-01-22T09:05:39.553Z,8.23
2019-01-22T09:08:20.633Z,9.33
2019-01-22T09:11:26.748Z,10.07
2019-01-22T09:14:50.170Z,9.43
2019-01-22T09:18:15.359Z,9.43
2019-01-22T09:20:56.179Z,9.17
2019-01-22T09:23:55.420Z,9.70
2019-01-22T09:26:33.606Z,9.43
2019-01-22T09:29:26.040Z,10.80
2019-01-22T09:32:42.531Z,9.63
2019-01-22T09:35:53.737Z,10.93
2019-01-22T09:38:22.808Z,10.30
2019-01-22T09:40:51.850Z,10.80
2019-01-22T09:43:20.918Z,11.90
2019-01-22T09:45:50.004Z,11.53
2019-01-22T09:48:19.105Z,12.63
2019-01-22T09:50:48.148Z,14.00
2019-01-22T09:53:17.258Z,14.60
2019-01-22T09:55:46.302Z,13.93
2019-01-22T09:58:15.364Z,15.10
2019-01-22T10:00:44.406Z,15.57
2019-01-22T10:03:13.453Z,16.67
2019-01-22T10:05:42.837Z,17.10
2019-01-22T10:08:11.879Z,16.97
2019-01-22T10:10:40.946Z,17.53
2019-01-22T10:13:10.188Z,17.20
2019-01-22T10:15:39.234Z,17.70
2019-01-22T10:18:08.407Z,17.03
2019-01-22T10:20:37.528Z,17.03
2019-01-22T10:23:06.590Z,17.20
2019-01-22T10:25:35.590Z,17.00
2019-01-22T10:28:04.683Z,17.27
2019-01-22T10:30:33.773Z,17.67
2019-01-22T10:33:02.917Z,17.17
2019-01-22T10:35:32.038Z,16.47
2019-01-22T10:38:01.058Z,16.83
2019-01-22T10:40:30.141Z,17.00
2019-01-22T10:42:59.274Z,18.00
2019-01-22T10:45:28.425Z,17.60
2019-01-22T10:47:57.495Z,17.77
2019-01-22T10:50:26.574Z,16.50
2019-01-22T10:52:55.641Z,17.70
2019-01-22T10:55:24.795Z,17.50
2019-01-22T10:57:53.857Z,15.97
2019-01-22T11:00:25.105Z,18.03
2019-01-22T11:02:54.172Z,17.47
2019-01-22T11:05:25.918Z,17.37
2019-01-22T11:07:55.041Z,17.63
2019-01-22T11:10:25.526Z,18.43
2019-01-22T11:12:54.564Z,18.00
2019-01-22T11:15:27.857Z,17.73
2019-01-22T11:17:54.347Z,17.77
2019-01-22T11:20:25.071Z,17.70
2019-01-22T11:22:54.134Z,18.17
2019-01-22T11:25:23.798Z,16.87
2019-01-22T11:27:52.777Z,18.10
2019-01-22T11:30:24.764Z,17.97
2019-01-22T11:32:53.840Z,16.77
2019-01-22T11:35:23.126Z,16.57
2019-01-22T11:37:52.435Z,17.77
2019-01-22T11:40:26.864Z,17.47
2019-01-22T11:42:55.963Z,17.47
2019-01-22T11:45:26.502Z,16.80
2019-01-22T11:47:55.570Z,17.00
2019-01-22T11:50:25.688Z,17.27
2019-01-22T11:52:54.770Z,17.17
2019-01-22T11:55:23.886Z,17.00
2019-01-22T11:57:53.041Z,16.43
2019-01-22T12:00:33.782Z,17.50
2019-01-22T12:03:02.740Z,16.67
2019-01-22T12:05:31.918Z,16.10
2019-01-22T12:08:01.055Z,16.73
2019-01-22T12:10:31.547Z,15.80
2019-01-22T12:13:00.612Z,15.37
2019-01-22T12:15:29.601Z,15.90
2019-01-22T12:17:58.752Z,15.37
2019-01-22T12:20:28.754Z,15.40
2019-01-22T12:22:58.014Z,15.20
2019-01-22T12:25:27.078Z,16.23
2019-01-22T12:27:56.058Z,14.57
2019-01-22T12:30:27.512Z,14.27
2019-01-22T12:32:56.584Z,14.63
2019-01-22T12:35:25.650Z,15.30
2019-01-22T12:37:54.722Z,15.33
2019-01-22T12:40:24.046Z,14.80
2019-01-22T12:42:53.131Z,16.20
2019-01-22T12:45:24.307Z,14.90
2019-01-22T12:47:53.455Z,13.77
2019-01-22T12:50:25.797Z,15.77
2019-01-22T12:52:53.733Z,15.63
2019-01-22T12:55:23.357Z,14.77
2019-01-22T12:57:52.347Z,14.40
2019-01-22T13:00:25.553Z,14.70
2019-01-22T13:02:54.602Z,13.20
2019-01-22T13:05:42.310Z,13.87
2019-01-22T13:08:11.394Z,13.60
2019-01-22T13:10:42.006Z,13.40
2019-01-22T13:13:11.093Z,14.10
2019-01-22T13:15:40.159Z,13.90
2019-01-22T13:18:09.217Z,13.17
2019-01-22T13:20:38.395Z,13.13
2019-01-22T13:23:07.442Z,13.13
2019-01-22T13:25:36.500Z,12.77
2019-01-22T13:28:05.584Z,12.97
2019-01-22T13:30:34.833Z,13.00
2019-01-22T13:33:03.898Z,11.27
2019-01-22T13:35:32.986Z,11.80
2019-01-22T13:38:02.123Z,12.10
2019-01-22T13:40:31.284Z,11.63
2019-01-22T13:43:00.377Z,11.60
2019-01-22T13:45:30.226Z,13.07
2019-01-22T13:47:59.901Z,11.20
2019-01-22T13:50:28.989Z,11.43
2019-01-22T13:52:58.041Z,11.87
2019-01-22T13:55:34.920Z,12.03
2019-01-22T13:58:03.977Z,11.80
2019-01-22T14:00:34.600Z,12.03
2019-01-22T14:03:04.734Z,10.67
2019-01-22T14:05:33.847Z,10.67
2019-01-22T14:08:02.854Z,10.20
2019-01-22T14:10:32.084Z,10.47
2019-01-22T14:13:01.167Z,10.73
2019-01-22T14:15:32.588Z,10.97
2019-01-22T14:18:01.760Z,10.30
2019-01-22T14:20:30.816Z,10.40
2019-01-22T14:22:59.883Z,10.27
2019-01-22T14:25:29.089Z,10.70
2019-01-22T14:27:58.172Z,10.27
2019-01-22T14:30:37.642Z,9.70
2019-01-22T14:33:06.861Z,9.93
2019-01-22T14:35:36.106Z,9.77
2019-01-22T14:38:05.247Z,9.93
2019-01-22T14:40:35.697Z,10.23
2019-01-22T14:43:04.809Z,10.47
2019-01-22T14:45:33.896Z,10.23
2019-01-22T14:48:02.965Z,11.30
2019-01-22T14:50:32.626Z,9.87
2019-01-22T14:53:01.695Z,9.07
2019-01-22T14:55:31.128Z,9.80
2019-01-22T14:58:00.418Z,8.97
2019-01-22T15:00:29.741Z,9.70
2019-01-22T15:02:59.482Z,9.93
2019-01-22T15:05:28.538Z,10.10
2019-01-22T15:07:58.992Z,9.77
2019-01-22T15:10:28.481Z,9.67
2019-01-22T15:12:59.554Z,9.80
2019-01-22T15:15:28.800Z,9.43
2019-01-22T15:17:58.211Z,9.97
2019-01-22T15:20:27.609Z,9.60
2019-01-22T15:22:56.972Z,9.87
2019-01-22T15:25:26.424Z,9.90
2019-01-22T15:27:55.751Z,9.37
2019-01-22T15:30:33.237Z,9.27
2019-01-22T15:33:05.914Z,9.13
2019-01-22T15:35:35.375Z,9.50
2019-01-22T15:38:04.998Z,9.27
2019-01-22T15:40:34.421Z,9.87
2019-01-22T15:43:03.606Z,8.93
2019-01-22T15:45:32.971Z,9.27
2019-01-22T15:48:01.996Z,9.43
2019-01-22T15:50:31.936Z,9.87
2019-01-22T15:53:01.010Z,8.60
2019-01-22T15:55:36.580Z,9.13
2019-01-22T15:58:06.820Z,9.10
2019-01-22T16:00:35.989Z,9.17
2019-01-22T16:03:06.202Z,8.63
2019-01-22T16:05:35.322Z,8.97
2019-01-22T16:08:04.565Z,8.40
2019-01-22T16:10:33.717Z,9.03
2019-01-22T16:13:02.943Z,8.87
2019-01-22T16:15:32.138Z,9.33
2019-01-22T16:18:01.131Z,8.37
2019-01-22T16:20:30.439Z,8.70
2019-01-22T16:22:59.546Z,8.03
2019-01-22T16:25:28.591Z,8.60
2019-01-22T16:27:57.707Z,8.67
2019-01-22T16:30:27.543Z,8.80
2019-01-22T16:32:56.756Z,9.00
2019-01-22T16:35:27.134Z,8.60
2019-01-22T16:37:56.366Z,8.73
2019-01-22T16:40:25.326Z,8.90
2019-01-22T16:42:55.530Z,8.00
2019-01-22T16:45:27.738Z,9.40
2019-01-22T16:47:56.913Z,8.07
2019-01-22T16:50:26.828Z,8.53
2019-01-22T16:52:55.935Z,8.63
2019-01-22T16:55:33.115Z,8.37
2019-01-22T16:58:02.209Z,8.17
2019-01-22T17:00:31.905Z,8.37
2019-01-22T17:03:02.137Z,8.80
2019-01-22T17:05:31.201Z,8.17
2019-01-22T17:08:00.230Z,8.43
2019-01-22T17:10:29.277Z,8.40
2019-01-22T17:12:58.337Z,7.87
2019-01-22T17:15:27.382Z,8.30
2019-01-22T17:17:56.359Z,8.73
2019-01-22T17:20:30.929Z,8.67
2019-01-22T17:23:02.392Z,9.23
2019-01-22T17:25:31.580Z,8.70
2019-01-22T17:28:00.660Z,8.27
2019-01-22T17:30:30.979Z,8.03
2019-01-22T17:33:26.202Z,8.57
2019-01-22T17:35:55.273Z,8.73
2019-01-22T17:38:24.448Z,8.97
2019-01-22T17:40:53.503Z,8.80
2019-01-22T17:43:22.493Z,8.67
2019-01-22T17:45:51.636Z,8.97
2019-01-22T17:48:20.706Z,8.70
2019-01-22T17:50:51.229Z,8.37
2019-01-22T17:53:20.210Z,9.00
2019-01-22T17:55:49.270Z,8.93
2019-01-22T17:58:18.225Z,9.27
2019-01-22T18:00:47.486Z,9.87
2019-01-22T18:03:16.508Z,9.97
2019-01-22T18:05:45.616Z,10.07
2019-01-22T18:08:14.756Z,10.17
2019-01-22T18:10:43.812Z,9.70
2019-01-22T18:13:12.879Z,9.37
2019-01-22T18:15:41.946Z,9.73
2019-01-22T18:18:11.015Z,9.50
2019-01-22T18:20:40.083Z,9.50
2019-01-22T18:23:09.367Z,9.57
2019-01-22T18:25:38.474Z,9.40
2019-01-22T18:28:07.566Z,9.80
2019-01-22T18:30:36.550Z,10.10
2019-01-22T18:33:05.624Z,9.30
2019-01-22T18:35:40.235Z,9.87
2019-01-22T18:38:09.399Z,9.33
2019-01-22T18:40:38.551Z,9.90
2019-01-22T18:43:08.723Z,9.27
2019-01-22T18:45:37.700Z,10.43
2019-01-22T18:48:06.988Z,9.67
2019-01-22T18:50:36.114Z,10.63
2019-01-22T18:53:05.122Z,10.00
2019-01-22T18:55:34.356Z,10.10
2019-01-22T18:58:03.417Z,9.67
2019-01-22T19:00:32.545Z,11.47
2019-01-22T19:03:01.818Z,10.23
2019-01-22T19:05:30.833Z,10.27
2019-01-22T19:08:00.099Z,9.47
2019-01-22T19:10:30.375Z,10.90
2019-01-22T19:12:59.845Z,10.63
2019-01-22T19:15:29.625Z,10.30
2019-01-22T19:17:58.656Z,9.50
2019-01-22T19:20:27.808Z,10.57
2019-01-22T19:22:56.881Z,10.30
2019-01-22T19:25:27.110Z,10.30
2019-01-22T19:27:56.134Z,9.87
2019-01-22T19:30:26.887Z,10.37
2019-01-22T19:32:56.028Z,11.07
2019-01-22T19:35:25.671Z,10.50
2019-01-22T19:37:54.725Z,10.40
2019-01-22T19:40:23.858Z,10.33
2019-01-22T19:42:52.890Z,9.90
2019-01-22T19:45:27.181Z,9.90
2019-01-22T19:47:56.247Z,10.70
2019-01-22T19:50:25.315Z,11.50
2019-01-22T19:52:55.621Z,11.17
2019-01-22T19:55:24.642Z,10.93
2019-01-22T19:57:53.646Z,10.93
2019-01-22T20:00:24.993Z,10.53
2019-01-22T20:02:54.096Z,11.30
2019-01-22T20:05:23.119Z,10.20
2019-01-22T20:07:52.100Z,10.83
2019-01-22T20:10:21.162Z,10.40
2019-01-22T20:12:50.149Z,10.33
2019-01-22T20:15:19.305Z,10.17
2019-01-22T20:17:48.373Z,10.90
2019-01-22T20:20:18.234Z,11.33
2019-01-22T20:22:47.394Z,10.87
2019-01-22T20:25:16.518Z,11.00
2019-01-22T20:27:48.343Z,11.20
2019-01-22T20:30:21.857Z,11.47
2019-01-22T20:32:52.021Z,10.90
2019-01-22T20:35:21.058Z,10.93
2019-01-22T20:37:50.137Z,11.70
2019-01-22T20:40:19.179Z,11.80
2019-01-22T20:42:48.234Z,11.00
2019-01-22T20:45:18.280Z,11.20
2019-01-22T20:47:47.335Z,11.07
2019-01-22T20:50:19.407Z,11.43
2019-01-22T20:52:47.186Z,11.03
2019-01-22T20:55:17.468Z,11.20
2019-01-22T20:57:46.474Z,11.27
2019-01-22T21:00:17.400Z,11.50
2019-01-22T21:02:46.444Z,10.93
2019-01-22T21:05:17.667Z,11.63
2019-01-22T21:07:46.689Z,11.60
2019-01-22T21:10:35.854Z,10.37
2019-01-22T21:13:06.169Z,12.40
2019-01-22T21:15:35.146Z,11.47
2019-01-22T21:18:04.138Z,11.63
2019-01-22T21:20:33.196Z,11.80
2019-01-22T21:23:02.307Z,12.23
2019-01-22T21:25:31.388Z,12.00
2019-01-22T21:28:01.857Z,11.70
2019-01-22T21:30:33.080Z,12.80
2019-01-22T21:33:02.639Z,12.93
2019-01-22T21:35:31.824Z,11.47
2019-01-22T21:38:00.925Z,13.13
2019-01-22T21:40:30.037Z,10.83
2019-01-22T21:42:59.339Z,12.47
2019-01-22T21:45:28.557Z,13.03
2019-01-22T21:47:57.658Z,13.63
2019-01-22T21:50:26.781Z,12.63
2019-01-22T21:52:55.866Z,13.33
2019-01-22T21:55:25.078Z,13.37
2019-01-22T21:57:54.247Z,13.30
2019-01-22T22:00:24.466Z,12.47
2019-01-22T22:02:53.565Z,13.63
2019-01-22T22:05:24.830Z,13.77
2019-01-22T22:07:53.924Z,14.50
2019-01-22T22:10:23.021Z,13.37
2019-01-22T22:12:55.782Z,14.17
2019-01-22T22:15:25.527Z,13.80
2019-01-22T22:17:54.691Z,13.50
2019-01-22T22:20:24.823Z,13.83
2019-01-22T22:22:53.948Z,15.20
2019-01-22T22:25:24.427Z,13.97
2019-01-22T22:27:53.560Z,14.13
2019-01-22T22:30:29.149Z,13.97
2019-01-22T22:32:58.710Z,15.00
2019-01-22T22:35:27.868Z,13.63
2019-01-22T22:37:57.033Z,14.47
2019-01-22T22:40:27.384Z,14.20
2019-01-22T22:42:56.511Z,15.13
2019-01-22T22:45:25.648Z,14.30
2019-01-22T22:47:54.780Z,14.43
2019-01-22T22:50:25.827Z,15.20
2019-01-22T22:52:54.908Z,15.20
2019-01-22T22:55:24.099Z,15.70
2019-01-22T22:57:53.208Z,16.07
2019-01-22T23:01:02.786Z,15.53
2019-01-22T23:03:31.915Z,16.77
2019-01-22T23:06:01.063Z,16.43
2019-01-22T23:08:30.207Z,16.40
2019-01-22T23:10:59.320Z,17.07
2019-01-22T23:13:28.423Z,16.27
2019-01-22T23:15:57.627Z,15.90
2019-01-22T23:18:26.791Z,16.67
2019-01-22T23:20:55.896Z,16.07
2019-01-22T23:23:24.988Z,17.47
2019-01-22T23:25:54.122Z,15.30
2019-01-22T23:28:28.783Z,16.60
2019-01-22T23:30:53.945Z,17.07
2019-01-22T23:33:23.060Z,17.07
2019-01-22T23:35:52.157Z,16.03
2019-01-22T23:38:21.264Z,16.37
2019-01-22T23:40:50.371Z,16.60
2019-01-22T23:43:19.551Z,16.40
2019-01-22T23:45:48.654Z,16.10
2019-01-22T23:48:17.839Z,15.93
2019-01-22T23:50:46.933Z,15.07
2019-01-22T23:53:16.036Z,15.93
2019-01-22T23:55:45.219Z,15.63
2019-01-22T23:58:14.338Z,14.70
